Time;durP1;ratioP1;P1;durP2;ratioP2;P2;SDS_P1;SDS_P2;PMS_P1;PMS_P2;Temp;Humidity;BMP_temperature;BMP_pressure;BME280_temperature;BME280_humidity;BME280_pressure;Samples;Min_cycle;Max_cycle;Signal;HPM_P1;HPM_P2
2024/02/12 00:01:58;;;;;;;3.87;2.50;;;7.70;86.80;;;9.51;59.17;95963.00;5031991;28;20044;-62
2024/02/12 00:04:26;;;;;;;2.43;1.50;;;7.70;87.10;;;9.50;59.54;95966.69;5031801;28;20037;-62
2024/02/12 00:06:57;;;;;;;2.13;1.60;;;7.70;87.40;;;9.51;59.66;95959.53;5032510;28;20072;-62
2024/02/12 00:09:25;;;;;;;1.60;1.10;;;7.70;87.00;;;9.50;59.17;95964.03;5031502;28;20045;-62
2024/02/12 00:11:54;;;;;;;3.10;1.50;;;7.70;87.20;;;9.54;59.50;95967.09;5031807;28;20049;-62
2024/02/12 00:14:22;;;;;;;2.30;1.17;;;7.80;87.10;;;9.57;59.68;95972.84;5031636;28;20045;-62
2024/02/12 00:16:50;;;;;;;1.20;1.03;;;7.90;86.60;;;9.57;59.20;95972.03;5032191;28;20498;-62
2024/02/12 00:19:17;;;;;;;0.83;0.70;;;7.90;86.70;;;9.61;59.48;95966.13;5032385;28;20041;-61
2024/02/12 00:21:48;;;;;;;1.20;0.90;;;7.90;86.70;;;9.64;59.55;95971.03;5024717;28;20501;-62
2024/02/12 00:24:17;;;;;;;1.73;1.10;;;7.90;87.00;;;9.64;59.56;95972.88;5032732;28;20409;-62
2024/02/12 00:26:44;;;;;;;1.03;0.90;;;7.90;86.90;;;9.64;59.53;95976.34;5031935;28;20053;-62
2024/02/12 00:29:14;;;;;;;1.33;1.20;;;7.90;87.10;;;9.64;59.26;95973.69;5031670;28;20052;-62
2024/02/12 00:31:42;;;;;;;1.60;1.00;;;7.90;86.80;;;9.63;59.91;95971.25;5032427;28;20045;-62
2024/02/12 00:34:10;;;;;;;1.70;1.30;;;7.90;85.90;;;9.62;59.70;95975.72;5032425;28;20049;-62
2024/02/12 00:36:38;;;;;;;1.30;0.73;;;7.90;86.30;;;9.64;59.12;95964.91;5030619;28;20046;-62
2024/02/12 00:39:09;;;;;;;1.53;1.00;;;7.90;86.50;;;9.62;59.79;95966.94;5032266;28;20048;-62
2024/02/12 00:41:37;;;;;;;3.30;1.10;;;7.90;86.20;;;9.56;59.60;95963.25;5032282;28;20049;-62
2024/02/12 00:44:05;;;;;;;1.37;0.90;;;7.80;86.70;;;9.58;59.62;95963.06;5014431;28;20052;-62
2024/02/12 00:46:32;;;;;;;1.43;1.30;;;7.80;86.60;;;9.57;59.51;95974.69;5030480;28;20057;-62
2024/02/12 00:49:00;;;;;;;0.93;0.83;;;7.80;86.60;;;9.53;59.26;95968.13;5032309;28;20034;-62
2024/02/12 00:51:27;;;;;;;1.63;0.80;;;7.70;87.20;;;9.48;59.35;95973.19;5032007;28;20052;-62
2024/02/12 00:53:55;;;;;;;1.73;1.10;;;7.60;87.00;;;9.45;59.79;95974.41;5032204;28;20044;-62
2024/02/12 00:56:24;;;;;;;2.37;1.00;;;7.60;87.50;;;9.43;59.52;95974.59;5030564;28;20228;-62
2024/02/12 00:58:51;;;;;;;0.70;0.70;;;7.60;87.70;;;9.42;59.86;95972.13;5024377;28;20046;-62
2024/02/12 01:01:19;;;;;;;1.90;1.30;;;7.60;88.00;;;9.42;59.56;95978.28;5032148;28;20033;-62
2024/02/12 01:03:47;;;;;;;1.67;1.00;;;7.60;88.10;;;9.43;59.54;95977.25;5032553;28;20108;-62
2024/02/12 01:06:16;;;;;;;4.47;1.13;;;7.60;87.60;;;9.43;59.58;95987.88;5030195;28;20496;-62
2024/02/12 01:08:44;;;;;;;4.53;1.00;;;7.60;87.70;;;9.41;59.84;95981.94;5032213;28;20056;-62
2024/02/12 01:11:14;;;;;;;1.73;1.20;;;7.60;88.00;;;9.40;59.72;95985.63;5032489;28;20037;-61
2024/02/12 01:13:44;;;;;;;4.23;1.10;;;7.60;87.90;;;9.42;59.92;95985.41;5031714;28;20513;-62
2024/02/12 01:16:11;;;;;;;1.30;1.20;;;7.60;88.00;;;9.42;59.84;95988.91;5029853;28;20041;-61
2024/02/12 01:18:39;;;;;;;1.40;0.77;;;7.60;87.80;;;9.43;60.01;95979.09;5031571;28;20493;-62
2024/02/12 01:21:07;;;;;;;1.37;1.13;;;7.50;87.70;;;9.43;59.65;95985.22;5031273;28;20040;-62
2024/02/12 01:23:35;;;;;;;2.10;0.93;;;7.60;87.90;;;9.44;59.76;95994.00;5031352;28;20485;-62
2024/02/12 01:26:03;;;;;;;1.43;0.90;;;7.60;87.70;;;9.44;59.85;95986.88;5031154;28;20041;-62
2024/02/12 01:28:31;;;;;;;1.10;0.80;;;7.60;86.70;;;9.45;59.66;95988.50;5031407;28;20398;-62
2024/02/12 01:30:59;;;;;;;1.83;1.13;;;7.60;86.70;;;9.45;59.89;95982.38;5031413;28;20420;-62
2024/02/12 01:33:29;;;;;;;1.00;0.87;;;7.70;86.80;;;9.48;59.63;95989.13;5031314;28;20049;-62
2024/02/12 01:35:56;;;;;;;2.73;0.90;;;7.70;86.70;;;9.48;59.74;95991.78;5030931;28;20501;-61
2024/02/12 01:38:24;;;;;;;1.10;0.63;;;7.70;86.50;;;9.49;59.90;95986.28;5031743;28;20056;-62
2024/02/12 01:40:53;;;;;;;0.70;0.50;;;7.80;86.50;;;9.49;59.50;95985.47;5026544;28;20052;-62
2024/02/12 01:43:31;;;;;;;1.00;0.80;;;7.70;86.10;;;9.51;59.80;95986.09;5030016;28;20041;-62
2024/02/12 01:46:00;;;;;;;1.23;1.10;;;7.70;86.80;;;9.50;59.63;95998.56;5006941;28;20045;-62
2024/02/12 01:48:30;;;;;;;0.90;0.90;;;7.70;85.80;;;9.51;59.60;96000.19;5030202;28;20068;-62
2024/02/12 01:51:11;;;;;;;0.80;0.80;;;7.80;86.80;;;9.54;60.00;95996.31;5024133;28;20052;-62
2024/02/12 01:53:46;;;;;;;1.33;0.90;;;7.80;86.30;;;9.52;59.98;95998.34;5014868;28;20042;-62
2024/02/12 01:56:15;;;;;;;2.47;1.00;;;7.80;86.10;;;9.53;60.04;96000.81;5029493;28;20494;-61
2024/02/12 01:58:45;;;;;;;3.50;0.83;;;7.80;86.50;;;9.51;59.60;95994.88;5021598;28;20056;-61
2024/02/12 02:01:14;;;;;;;1.57;0.60;;;7.80;86.50;;;9.52;59.83;95998.34;5030993;28;20101;-62
2024/02/12 02:03:43;;;;;;;2.73;0.80;;;7.80;85.90;;;9.55;59.69;95997.97;5029728;28;20061;-62
2024/02/12 02:06:12;;;;;;;1.33;0.90;;;7.90;85.80;;;9.58;59.86;96003.72;5029252;28;20072;-62
2024/02/12 02:08:42;;;;;;;1.00;0.80;;;7.90;85.60;;;9.56;59.58;96004.94;5029519;28;20041;-62
2024/02/12 02:11:10;;;;;;;0.93;0.70;;;7.90;85.20;;;9.56;60.04;96000.44;5030599;28;20042;-62
2024/02/12 02:13:43;;;;;;;2.33;0.80;;;7.90;85.10;;;9.58;59.62;96002.91;5012317;28;20049;-62
2024/02/12 02:16:12;;;;;;;0.73;0.73;;;8.00;85.00;;;9.62;59.64;96006.81;5029485;28;20046;-62
2024/02/12 02:18:50;;;;;;;1.37;0.70;;;7.90;84.50;;;9.63;59.30;96011.09;5012708;28;20061;-62
2024/02/12 02:21:22;;;;;;;1.37;0.83;;;8.00;84.60;;;9.64;59.30;96008.25;5030857;28;20041;-62
2024/02/12 02:23:55;;;;;;;1.27;0.80;;;8.00;84.80;;;9.64;59.28;96016.22;5029500;28;20065;-61
2024/02/12 02:26:23;;;;;;;1.20;0.83;;;8.00;84.50;;;9.66;59.57;96014.19;5030413;28;20046;-62
2024/02/12 02:28:51;;;;;;;1.60;0.80;;;8.00;84.60;;;9.68;59.10;96011.34;5030477;28;20049;-62
2024/02/12 02:31:19;;;;;;;1.70;0.67;;;8.00;84.60;;;9.68;59.25;96014.00;5030740;28;20041;-62
2024/02/12 02:33:46;;;;;;;0.57;0.57;;;8.00;84.30;;;9.70;59.57;96011.97;5029388;28;20056;-62
2024/02/12 02:36:14;;;;;;;2.27;0.80;;;8.00;84.20;;;9.70;59.12;96017.28;5030577;28;20053;-62
2024/02/12 02:38:41;;;;;;;0.80;0.60;;;8.00;84.10;;;9.74;59.51;96012.41;5030244;28;20421;-61
2024/02/12 02:41:09;;;;;;;0.80;0.70;;;8.00;83.70;;;9.75;59.50;96020.19;5030737;28;20045;-62
2024/02/12 02:43:38;;;;;;;1.27;0.70;;;8.00;84.30;;;9.76;59.35;96019.16;5012226;28;20060;-61
2024/02/12 02:46:05;;;;;;;0.87;0.70;;;8.00;84.40;;;9.79;59.19;96023.25;5028788;28;20049;-62
2024/02/12 02:48:33;;;;;;;2.90;0.70;;;8.10;84.20;;;9.80;59.14;96030.22;5030461;28;20053;-62
2024/02/12 02:51:01;;;;;;;0.83;0.70;;;8.10;83.60;;;9.81;58.83;96032.69;5021294;28;20056;-62
2024/02/12 02:53:28;;;;;;;0.87;0.80;;;8.10;83.60;;;9.80;59.10;96027.56;5030610;28;20045;-62
2024/02/12 02:55:56;;;;;;;1.07;0.80;;;8.10;84.00;;;9.77;59.34;96031.44;5028768;28;20057;-62
2024/02/12 02:58:24;;;;;;;1.33;1.20;;;8.10;84.50;;;9.77;59.40;96038.56;5029094;28;20500;-62
2024/02/12 03:00:53;;;;;;;3.03;1.67;;;8.10;85.40;;;9.69;59.67;96034.22;5030554;28;20547;-62
2024/02/12 03:03:22;;;;;;;1.00;0.80;;;8.00;85.80;;;9.60;59.91;96033.56;5030460;28;20067;-62
2024/02/12 03:05:50;;;;;;;1.97;0.80;;;8.00;86.50;;;9.63;59.78;96040.31;5028519;28;20425;-62
2024/02/12 03:08:18;;;;;;;1.30;1.10;;;8.00;86.50;;;9.53;59.93;96034.53;5030522;28;20060;-62
2024/02/12 03:10:46;;;;;;;1.43;0.83;;;7.90;86.30;;;9.51;60.08;96036.56;5030270;28;20056;-62
2024/02/12 03:13:15;;;;;;;2.70;1.30;;;7.90;87.60;;;9.54;60.32;96038.81;5028875;28;20056;-62
2024/02/12 03:15:43;;;;;;;3.03;1.10;;;7.90;87.10;;;9.51;60.26;96042.69;5029832;28;20302;-62
2024/02/12 03:18:11;;;;;;;1.33;0.90;;;7.90;87.10;;;9.52;60.46;96047.00;5028994;28;20037;-62
2024/02/12 03:20:39;;;;;;;1.23;0.80;;;7.90;87.40;;;9.52;60.42;96041.69;5029988;28;20041;-62
2024/02/12 03:23:09;;;;;;;1.97;1.57;;;7.90;87.10;;;9.55;60.56;96053.75;5030306;28;20040;-61
2024/02/12 03:25:37;;;;;;;1.40;1.00;;;7.90;87.10;;;9.55;60.73;96046.59;5029220;28;20547;-61
2024/02/12 03:28:05;;;;;;;2.63;1.20;;;7.90;86.30;;;9.53;60.18;96048.63;5033585;28;20045;-61
2024/02/12 03:30:33;;;;;;;1.63;1.10;;;7.90;86.20;;;9.52;60.41;96054.97;5033634;28;20041;-62
2024/02/12 03:33:02;;;;;;;2.00;1.40;;;7.90;86.00;;;9.49;60.67;96054.53;5033509;28;20064;-62
2024/02/12 03:35:30;;;;;;;2.53;1.60;;;7.90;86.40;;;9.48;60.74;96061.69;5033396;28;20046;-62
2024/02/12 03:37:58;;;;;;;2.50;1.30;;;7.90;86.40;;;9.53;60.46;96072.53;5032130;28;23114;-62
2024/02/12 03:40:27;;;;;;;2.20;1.23;;;8.00;85.80;;;9.35;60.58;96069.56;5033521;28;20045;-61
2024/02/12 03:42:55;;;;;;;2.33;1.60;;;7.90;85.60;;;9.44;60.40;96071.03;5032745;28;20066;-62
2024/02/12 03:45:24;;;;;;;3.07;1.77;;;7.90;85.30;;;9.46;60.33;96077.81;5032851;28;20052;-62
2024/02/12 03:47:59;;;;;;;1.83;1.23;;;7.90;84.70;;;9.35;60.65;96073.03;5033189;28;20045;-61
2024/02/12 04:01:40;;;;;;;4.70;1.70;;;7.80;85.20;;;9.17;60.69;96083.25;5033123;28;20052;-62
2024/02/12 04:04:10;;;;;;;4.20;1.57;;;7.70;85.50;;;9.17;60.14;96077.94;5025939;28;20489;-61
2024/02/12 04:06:38;;;;;;;4.00;1.60;;;7.70;85.70;;;9.15;60.31;96090.59;5031460;28;20045;-61
2024/02/12 04:09:08;;;;;;;4.90;1.50;;;7.60;85.20;;;9.15;60.28;96086.13;4990791;28;20045;-61
2024/02/12 04:11:40;;;;;;;2.27;1.70;;;7.70;85.90;;;9.21;60.31;96093.34;5032152;28;20048;-61
2024/02/12 04:14:11;;;;;;;3.53;1.63;;;7.70;85.30;;;9.26;60.47;96092.75;5031375;28;20041;-62
2024/02/12 04:16:39;;;;;;;3.07;1.60;;;7.80;85.40;;;9.27;60.27;96097.06;5031362;28;20493;-62
2024/02/12 04:19:10;;;;;;;2.40;1.50;;;7.80;85.00;;;9.23;60.27;96101.94;5032376;28;20046;-62
2024/02/12 04:21:38;;;;;;;2.03;1.50;;;7.80;84.60;;;9.23;60.44;96099.28;5032809;28;20041;-62
2024/02/12 04:24:06;;;;;;;1.80;1.40;;;7.70;85.10;;;9.26;60.32;96114.81;5033205;28;20038;-61
2024/02/12 04:26:37;;;;;;;3.97;2.50;;;7.70;84.80;;;9.21;60.26;96111.91;5031384;28;20285;-62
2024/02/12 04:29:05;;;;;;;2.13;1.63;;;7.70;85.20;;;9.25;60.52;96113.19;5032614;28;20520;-62
2024/02/12 04:31:35;;;;;;;3.13;2.00;;;7.70;85.30;;;9.26;60.17;96130.75;5031268;28;20045;-60
2024/02/12 04:34:07;;;;;;;3.33;1.73;;;7.70;85.30;;;9.30;60.47;96130.38;5032447;28;20052;-62
2024/02/12 04:36:41;;;;;;;2.80;1.50;;;7.80;85.20;;;9.34;60.14;96131.63;5030575;28;20048;-62
2024/02/12 04:39:13;;;;;;;;;;;7.80;84.90;;;9.24;60.31;96148.69;5023555;28;20551;-61
2024/02/12 04:41:42;;;;;;;3.87;1.83;;;7.80;84.50;;;9.17;60.52;96139.03;5030459;28;19921;-61
2024/02/12 04:44:10;;;;;;;4.07;2.77;;;7.70;85.40;;;9.23;60.37;96141.75;5030994;28;20045;-61
2024/02/12 04:46:37;;;;;;;2.20;1.57;;;7.80;85.20;;;9.28;60.50;96143.84;5031833;28;20452;-61
2024/02/12 04:49:06;;;;;;;3.97;2.10;;;7.80;85.30;;;9.29;60.55;96134.88;5032085;28;20049;-62
2024/02/12 04:51:37;;;;;;;3.60;2.07;;;7.80;85.00;;;9.21;60.29;96137.66;5032276;28;20049;-61
2024/02/12 04:54:05;;;;;;;4.03;2.53;;;7.70;85.90;;;9.23;60.37;96147.06;5014642;28;20045;-61
2024/02/12 04:56:33;;;;;;;3.33;2.37;;;7.70;84.60;;;9.23;60.27;96138.28;5030558;28;20037;-62
2024/02/12 04:59:01;;;;;;;4.30;2.60;;;7.80;84.70;;;9.27;60.08;96145.69;5031798;28;20108;-62
2024/02/12 05:01:29;;;;;;;4.27;2.10;;;7.80;84.20;;;9.30;60.01;96149.78;5031961;28;20405;-62
2024/02/12 05:03:58;;;;;;;4.47;2.77;;;7.80;83.60;;;9.31;60.06;96148.78;5032219;28;20053;-62
2024/02/12 05:06:27;;;;;;;3.37;2.30;;;7.80;83.60;;;9.27;60.02;96155.47;5031486;28;20042;-63
2024/02/12 05:08:55;;;;;;;5.30;2.90;;;7.80;82.70;;;9.20;59.76;96149.28;5031842;28;20037;-62
2024/02/12 05:11:26;;;;;;;5.33;3.67;;;7.80;82.50;;;9.20;59.85;96157.25;5031486;28;20049;-62
2024/02/12 05:13:54;;;;;;;4.03;2.73;;;7.70;82.40;;;9.20;60.04;96157.25;5031597;28;20049;-62
2024/02/12 05:16:33;;;;;;;4.47;2.23;;;7.80;82.70;;;9.29;60.01;96161.44;5031200;28;20045;-62
2024/02/12 05:24:36;;;;;;;3.77;3.13;;;7.80;82.70;;;9.12;60.18;96162.69;5030726;28;20048;-62
2024/02/12 05:27:03;;;;;;;5.80;2.77;;;7.80;82.40;;;9.20;60.14;96163.38;5031000;28;20421;-62
2024/02/12 05:29:31;;;;;;;4.70;3.00;;;7.80;83.10;;;9.22;59.89;96169.31;5031306;28;20052;-62
2024/02/12 05:31:59;;;;;;;6.87;3.37;;;7.80;82.70;;;9.15;60.19;96176.41;5031300;28;20064;-62
2024/02/12 05:34:27;;;;;;;4.10;2.93;;;7.80;83.30;;;9.30;59.88;96183.50;5030246;28;20044;-62
2024/02/12 05:36:55;;;;;;;5.83;3.10;;;7.80;83.30;;;9.19;60.26;96188.28;5030586;28;20417;-62
2024/02/12 05:39:23;;;;;;;6.03;3.10;;;7.80;83.60;;;9.05;60.76;96189.97;5031289;28;20068;-62
2024/02/12 05:41:52;;;;;;;6.43;2.93;;;7.80;84.40;;;9.01;61.20;96195.84;5031163;28;20326;-62
2024/02/12 05:44:20;;;;;;;6.67;2.90;;;7.70;84.70;;;9.16;60.74;96193.97;5029878;28;20045;-62
2024/02/12 05:46:49;;;;;;;4.23;2.93;;;7.80;84.60;;;9.20;60.68;96197.88;5030415;28;20527;-62
2024/02/12 05:49:25;;;;;;;6.83;3.00;;;7.80;84.90;;;9.12;60.81;96195.34;5022534;28;20497;-62
2024/02/12 05:51:56;;;;;;;5.47;2.60;;;7.70;85.60;;;8.96;61.24;96199.06;5029651;28;20049;-63
2024/02/12 05:54:23;;;;;;;10.63;3.60;;;7.60;85.90;;;8.94;61.59;96205.56;5031152;28;20049;-62
2024/02/12 05:56:52;;;;;;;4.10;3.17;;;7.60;86.40;;;9.03;61.54;96205.28;5030785;28;20052;-62
2024/02/12 05:59:20;;;;;;;5.93;3.17;;;7.60;86.60;;;9.10;61.42;96210.66;5021816;28;20041;-62
2024/02/12 06:01:47;;;;;;;6.30;3.10;;;7.60;86.30;;;9.12;61.36;96211.28;5031003;28;20049;-62
2024/02/12 06:04:15;;;;;;;5.40;3.43;;;7.70;86.10;;;9.16;60.84;96225.00;5030910;28;20042;-62
2024/02/12 06:06:42;;;;;;;5.20;3.03;;;7.80;85.70;;;9.06;60.94;96222.66;5030640;28;20041;-62
2024/02/12 06:09:11;;;;;;;7.17;3.50;;;7.80;84.60;;;9.12;61.22;96219.25;5030747;28;20041;-62
2024/02/12 06:11:40;;;;;;;5.17;3.23;;;7.70;85.80;;;9.21;61.29;96231.41;5030866;28;20047;-62
2024/02/12 06:14:08;;;;;;;8.03;3.50;;;7.80;86.10;;;9.13;61.47;96230.69;5031197;28;20047;-62
2024/02/12 06:16:37;;;;;;;6.93;3.80;;;7.70;87.30;;;9.18;61.30;96239.75;5029212;28;20053;-62
2024/02/12 06:19:07;;;;;;;7.20;4.60;;;7.70;88.50;;;9.20;61.60;96235.06;5030756;28;20045;-61
2024/02/12 06:21:35;;;;;;;6.30;3.53;;;7.60;89.10;;;9.18;61.64;96230.97;5030559;28;20042;-61
2024/02/12 06:24:06;;;;;;;6.63;3.60;;;7.60;90.80;;;9.23;62.06;96231.22;5030498;28;20532;-62
2024/02/12 06:26:34;;;;;;;5.17;3.30;;;7.60;90.70;;;9.22;62.09;96224.25;5029332;28;20037;-61
2024/02/12 06:29:03;;;;;;;6.53;3.53;;;7.70;91.40;;;9.25;62.21;96215.94;5030521;28;20041;-62
2024/02/12 06:31:34;;;;;;;6.77;3.00;;;7.70;91.00;;;9.20;62.38;96218.31;5030531;28;20088;-62
2024/02/12 06:34:02;;;;;;;5.07;3.23;;;7.60;90.80;;;9.21;61.78;96223.44;5029216;28;20501;-62
2024/02/12 06:36:30;;;;;;;5.43;3.00;;;7.60;90.10;;;9.24;61.73;96225.72;5030248;28;20049;-62
2024/02/12 06:38:57;;;;;;;4.60;2.83;;;7.60;89.50;;;9.19;61.64;96232.59;5030501;28;20053;-63
2024/02/12 06:41:26;;;;;;;4.50;3.30;;;7.60;89.40;;;9.25;61.67;96242.50;5030521;28;20049;-62
2024/02/12 06:43:54;;;;;;;7.53;3.20;;;7.60;89.30;;;9.28;61.61;96250.06;5030071;28;20485;-61
2024/02/12 06:46:22;;;;;;;5.53;3.60;;;7.70;89.80;;;9.28;61.50;96252.72;5029804;28;20044;-63
2024/02/12 06:48:50;;;;;;;7.30;3.67;;;7.70;89.20;;;9.24;61.49;96254.91;5030474;28;20050;-62
2024/02/12 06:51:18;;;;;;;4.17;2.97;;;7.60;89.20;;;9.24;61.40;96260.22;5030447;28;20053;-63
2024/02/12 06:53:45;;;;;;;7.83;3.23;;;7.70;89.10;;;9.25;61.97;96264.53;5030408;28;20045;-62
2024/02/12 06:56:13;;;;;;;4.90;3.43;;;7.70;89.40;;;9.31;61.43;96264.81;5029939;28;20050;-63
2024/02/12 06:58:43;;;;;;;6.00;3.10;;;7.70;88.80;;;9.31;61.63;96267.47;5030626;28;20074;-62
2024/02/12 07:01:12;;;;;;;5.00;3.17;;;7.70;88.00;;;9.26;61.53;96289.25;5032909;28;20042;-63
2024/02/12 07:03:41;;;;;;;5.00;3.00;;;7.70;87.90;;;9.23;61.59;96277.19;5034170;28;20044;-63
2024/02/12 07:06:12;;;;;;;3.97;2.40;;;7.70;87.60;;;9.20;61.30;96277.53;5032690;28;20045;-62
2024/02/12 07:08:41;;;;;;;4.43;2.67;;;7.70;87.40;;;9.23;61.38;96276.38;5032773;28;20052;-63
2024/02/12 07:11:14;;;;;;;5.80;2.80;;;7.70;87.20;;;9.24;61.17;96286.78;5032664;28;20284;-63
2024/02/12 07:13:42;;;;;;;4.53;2.60;;;7.70;87.00;;;9.29;61.44;96285.44;5033874;28;20425;-62
2024/02/12 07:16:18;;;;;;;5.07;3.00;;;7.70;86.60;;;9.28;61.47;96295.22;5033337;28;20053;-62
2024/02/12 07:18:46;;;;;;;3.70;2.60;;;7.70;86.70;;;9.27;61.01;96291.75;5034038;28;20068;-62
2024/02/12 07:21:15;;;;;;;4.10;2.90;;;7.70;85.90;;;9.31;60.89;96292.19;5033520;28;20037;-65
2024/02/12 07:23:43;;;;;;;5.27;2.80;;;7.80;85.80;;;9.24;60.99;96300.06;5032761;28;20516;-64
2024/02/12 07:26:11;;;;;;;5.50;2.57;;;7.70;86.10;;;9.32;61.04;96304.44;5033299;28;20405;-65
2024/02/12 07:28:39;;;;;;;3.20;2.03;;;7.80;86.50;;;9.24;60.97;96305.38;5033688;28;20053;-63
2024/02/12 07:31:10;;;;;;;5.97;2.60;;;7.70;85.70;;;9.27;60.87;96307.66;5033238;28;20494;-62
2024/02/12 07:33:37;;;;;;;4.20;2.57;;;7.70;86.40;;;9.23;60.75;96311.72;5033431;28;20410;-62
2024/02/12 07:36:06;;;;;;;3.60;2.60;;;7.70;86.20;;;9.29;60.81;96317.31;5032612;28;20053;-62
2024/02/12 07:38:34;;;;;;;5.17;2.83;;;7.70;86.70;;;9.29;61.36;96331.41;5033504;28;20041;-62
2024/02/12 07:41:02;;;;;;;2.70;2.30;;;7.80;86.30;;;9.32;61.15;96323.03;5032842;28;20056;-60
2024/02/12 07:43:30;;;;;;;3.80;2.40;;;7.80;86.10;;;9.24;61.15;96326.63;5031443;28;20041;-61
2024/02/12 07:45:58;;;;;;;4.17;2.53;;;7.70;85.90;;;9.29;60.86;96330.56;5033014;28;20052;-61
2024/02/12 07:48:26;;;;;;;3.70;2.10;;;7.70;86.10;;;9.09;61.20;96341.72;5032076;28;20493;-61
2024/02/12 07:50:55;;;;;;;3.50;2.47;;;7.60;86.60;;;9.16;61.17;96342.66;5033488;28;20060;-61
2024/02/12 07:53:26;;;;;;;3.10;1.87;;;7.60;86.20;;;9.22;60.82;96346.41;5031763;28;20049;-60
2024/02/12 07:55:55;;;;;;;3.23;2.20;;;7.70;84.90;;;9.29;60.68;96349.97;5031611;28;20116;-62
2024/02/12 07:58:24;;;;;;;2.87;1.87;;;7.70;85.40;;;9.24;60.82;96350.53;5032012;28;20053;-63
2024/02/12 08:00:52;;;;;;;2.93;1.90;;;7.70;85.60;;;9.25;61.00;96348.72;5033154;28;20109;-63
2024/02/12 08:03:20;;;;;;;4.17;2.33;;;7.70;84.70;;;9.28;60.68;96343.00;5033070;28;20041;-61
2024/02/12 08:05:50;;;;;;;3.23;2.13;;;7.70;85.40;;;9.24;60.65;96345.22;5031641;28;20505;-58
2024/02/12 08:08:18;;;;;;;2.57;1.80;;;7.70;84.30;;;9.35;60.61;96343.13;5031633;28;20041;-60
2024/02/12 08:10:46;;;;;;;3.50;1.80;;;7.80;85.60;;;9.43;60.78;96348.31;5031457;28;20057;-60
2024/02/12 08:13:14;;;;;;;2.60;1.70;;;7.90;85.70;;;9.49;60.65;96341.44;5032375;28;20046;-60
2024/02/12 08:15:41;;;;;;;2.30;1.67;;;8.00;84.20;;;9.54;60.31;96344.34;5032459;28;20402;-60
2024/02/12 08:18:09;;;;;;;3.57;2.00;;;8.10;83.60;;;9.59;60.29;96357.91;5032786;28;20496;-60
2024/02/12 08:20:37;;;;;;;2.77;1.70;;;8.10;84.20;;;9.64;60.39;96364.31;5032761;28;20045;-60
2024/02/12 08:23:06;;;;;;;2.37;1.60;;;8.20;83.50;;;9.59;60.16;96368.53;5032693;28;20049;-60
2024/02/12 08:25:38;;;;;;;4.43;1.90;;;8.10;81.60;;;9.65;59.61;96373.94;5032180;28;20033;-60
2024/02/12 08:28:07;;;;;;;5.03;1.90;;;8.10;83.00;;;9.71;59.65;96376.84;5032542;28;20045;-60
2024/02/12 08:30:35;;;;;;;2.47;1.90;;;8.20;82.20;;;9.75;59.69;96383.44;5023583;28;20045;-60
2024/02/12 08:33:04;;;;;;;4.60;1.80;;;8.20;81.60;;;9.72;59.78;96376.66;5032616;28;20053;-60
2024/02/12 08:35:32;;;;;;;2.00;1.50;;;8.20;81.90;;;9.78;59.38;96388.38;5032074;28;20049;-59
2024/02/12 08:38:00;;;;;;;2.47;1.87;;;8.20;81.60;;;9.80;59.52;96397.81;5031460;28;20501;-59
2024/02/12 08:40:30;;;;;;;3.80;1.80;;;8.20;82.00;;;9.75;59.29;96399.38;5031078;28;20041;-59
2024/02/12 08:42:58;;;;;;;17.80;2.37;;;8.20;82.00;;;9.74;59.51;96400.41;5031083;28;20057;-60
2024/02/12 08:45:26;;;;;;;2.50;1.60;;;8.10;82.70;;;9.82;59.51;96409.06;5033152;28;20046;-59
2024/02/12 08:47:54;;;;;;;4.00;1.70;;;8.20;82.70;;;9.80;59.30;96410.28;5030589;28;20509;-59
2024/02/12 08:50:22;;;;;;;1.60;1.33;;;8.20;81.40;;;9.83;59.16;96405.41;5031867;28;20437;-59
2024/02/12 08:52:53;;;;;;;4.20;2.77;;;8.20;81.40;;;9.86;58.89;96412.19;5030876;28;20054;-59
2024/02/12 08:55:31;;;;;;;2.80;1.90;;;8.20;81.50;;;9.73;59.40;96415.53;5030329;28;20053;-59
2024/02/12 08:58:30;;;;;;;3.90;1.63;;;8.10;82.00;;;9.60;59.16;96424.16;5032017;28;20235;-59
2024/02/12 09:01:17;;;;;;;2.63;1.53;;;8.00;80.50;;;9.73;58.94;96425.31;5030258;28;20393;-59
2024/02/12 09:04:29;;;;;;;2.20;1.83;;;8.10;82.20;;;9.77;59.43;96426.59;5029315;28;20041;-59
2024/02/12 09:07:31;;;;;;;1.80;1.30;;;8.20;81.00;;;9.75;59.03;96445.41;5042876;28;20041;-60
2024/02/12 09:10:18;;;;;;;3.50;2.50;;;8.20;81.00;;;9.70;58.64;96436.34;5050409;28;20033;-59
2024/02/12 09:13:08;;;;;;;5.50;1.60;;;8.20;80.00;;;9.79;58.91;96437.84;5008222;28;20499;-59
2024/02/12 09:15:57;;;;;;;2.70;1.70;;;8.30;79.70;;;9.62;58.54;96438.06;5025403;28;20049;-60
2024/02/12 09:18:37;;;;;;;2.57;1.50;;;8.30;78.80;;;9.66;58.16;96446.50;5027302;28;20049;-60
2024/02/12 09:21:38;;;;;;;2.33;1.53;;;8.30;77.10;;;9.81;58.17;96443.84;5041030;28;20053;-59
2024/02/12 09:24:41;;;;;;;3.03;1.50;;;8.40;79.10;;;9.86;58.26;96446.75;5023867;28;20416;-60
2024/02/12 09:30:50;;;;;;;3.80;2.10;;;8.50;78.90;;;10.04;58.09;96455.16;5028592;28;20041;-59
2024/02/12 09:33:22;;;;;;;2.47;1.58;;;8.60;78.60;;;10.00;57.96;96455.69;5043675;28;20044;-60
2024/02/12 09:36:18;;;;;;;3.90;1.70;;;8.50;78.40;;;9.98;58.62;96463.03;5049358;28;20374;-59
2024/02/12 09:39:29;;;;;;;;;;;8.50;78.50;;;9.88;58.29;96465.19;5046165;28;20393;-59
2024/02/12 09:42:16;;;;;;;2.43;1.93;;;8.40;78.10;;;9.89;58.03;96461.50;5030427;28;19931;-59
2024/02/12 09:45:23;;;;;;;3.37;2.10;;;8.50;79.70;;;9.78;58.51;96462.81;5033832;28;20420;-59
2024/02/12 09:48:39;;;;;;;6.53;2.37;;;8.40;79.50;;;9.85;58.88;96467.19;5042849;28;20037;-59
2024/02/12 09:51:53;;;;;;;3.73;2.20;;;8.40;80.30;;;9.85;58.88;96469.84;5039265;28;20524;-59
2024/02/12 09:54:39;;;;;;;4.50;2.07;;;8.50;80.30;;;9.93;58.98;96474.25;5037204;28;20067;-58
2024/02/12 09:57:31;;;;;;;6.83;2.63;;;8.50;79.70;;;9.86;58.70;96476.81;5049340;28;20041;-59
2024/02/12 10:00:37;;;;;;;4.87;2.67;;;8.50;80.00;;;9.86;59.21;96484.78;5053238;28;20056;-61
2024/02/12 10:03:54;;;;;;;3.77;2.40;;;8.40;80.60;;;9.93;58.94;96487.53;5048981;28;20045;-61
2024/02/12 10:06:44;;;;;;;5.07;2.47;;;8.50;81.20;;;10.05;59.16;96490.53;5049050;28;20047;-59
2024/02/12 10:10:20;;;;;;;5.73;2.00;;;8.50;81.20;;;10.12;58.63;96488.78;5020142;28;20040;-61
2024/02/12 10:14:02;;;;;;;;;;;8.60;80.60;;;10.11;58.66;96495.13;5049992;28;20052;-61
2024/02/12 10:20:30;;;;;;;3.73;2.10;;;8.50;79.30;;;9.80;57.93;96501.47;5045039;28;20057;-61
2024/02/12 10:23:39;;;;;;;3.60;1.93;;;8.40;77.40;;;9.89;58.15;96510.19;5030368;28;20045;-61
2024/02/12 10:26:43;;;;;;;4.53;2.00;;;8.50;77.90;;;9.75;58.36;96511.84;5034442;28;20036;-61
2024/02/12 10:29:41;;;;;;;3.20;2.10;;;8.40;78.80;;;9.75;57.91;96516.31;5049437;28;20072;-61
2024/02/12 10:32:51;;;;;;;4.33;2.17;;;8.40;77.30;;;9.95;57.64;96513.94;5048980;28;20041;-58
2024/02/12 10:36:04;;;;;;;;;;;;;;;;;;;;;
2024/02/12 10:38:55;;;;;;;4.55;2.25;;;8.70;76.50;;;9.93;58.02;96508.81;5041082;28;20045;-61
2024/02/12 10:41:40;;;;;;;3.10;1.83;;;8.70;76.80;;;10.03;57.46;96508.53;5036022;28;20037;-60
2024/02/12 10:44:26;;;;;;;2.87;1.63;;;8.60;77.60;;;10.03;58.01;96497.88;5032248;28;20382;-59
2024/02/12 10:47:25;;;;;;;4.03;1.93;;;8.70;77.80;;;9.88;57.99;96499.72;5030780;28;20047;-60
2024/02/12 10:50:47;;;;;;;2.43;1.80;;;8.60;77.60;;;9.77;58.31;96498.34;5012451;28;20412;-60
2024/02/12 10:53:38;;;;;;;4.93;1.80;;;8.50;78.30;;;9.91;58.14;96502.84;5052779;28;20049;-60
2024/02/12 10:56:30;;;;;;;3.67;1.90;;;8.60;78.90;;;9.92;58.29;96506.31;5037777;28;20068;-60
2024/02/12 10:59:40;;;;;;;2.50;2.10;;;8.70;78.40;;;9.93;57.95;96513.31;5036191;28;20063;-60
2024/02/12 11:02:14;;;;;;;2.83;1.97;;;8.70;77.30;;;9.83;57.89;96505.63;5030231;28;20068;-60
2024/02/12 11:05:29;;;;;;;4.37;1.87;;;8.60;77.50;;;9.80;57.94;96504.13;5037146;28;20531;-60
2024/02/12 11:15:47;;;;;;;2.03;1.30;;;8.70;76.30;;;9.89;57.50;96506.69;4974265;28;20049;-60
2024/02/12 11:18:19;;;;;;;2.37;1.33;;;8.80;75.90;;;9.95;57.76;96508.63;5013361;28;20559;-60
2024/02/12 11:21:30;;;;;;;3.13;1.67;;;8.80;76.70;;;10.08;57.46;96511.47;5035785;28;20682;-60
2024/02/12 11:25:04;;;;;;;3.17;2.10;;;8.90;75.10;;;9.97;57.11;96510.09;4940116;29;20043;-60
2024/02/12 11:28:17;;;;;;;2.03;1.30;;;8.90;74.60;;;10.00;57.15;96512.38;4935557;29;20623;-60
2024/02/12 11:30:55;;;;;;;4.60;1.47;;;8.90;75.90;;;10.07;56.59;96516.97;4938447;29;20144;-60
2024/02/12 11:34:10;;;;;;;1.57;1.43;;;8.90;73.50;;;10.08;55.77;96518.59;5005289;28;20519;-60
2024/02/12 11:37:37;;;;;;;5.20;2.10;;;8.90;73.30;;;9.94;56.49;96517.59;5044079;28;20700;-60
2024/02/12 11:40:19;;;;;;;2.33;1.48;;;8.80;74.20;;;9.99;56.11;96516.03;5051893;28;20493;-60